Time;durP1;ratioP1;P1;durP2;ratioP2;P2;SDS_P1;SDS_P2;PMS_P1;PMS_P2;Temp;Humidity;BMP_temperature;BMP_pressure;BME280_temperature;BME280_humidity;BME280_pressure;Samples;Min_cycle;Max_cycle;Signal;HPM_P1;HPM_P2
2023/03/31 07:07:03;;;;;;;11.60;4.30;;;;;;;4.86;41.01;98786.33;80061;1299;3013265;-69
2023/03/31 07:09:29;;;;;;;8.70;3.30;;;;;;;4.98;43.60;98781.06;79195;1304;3015064;-72
2023/03/31 07:12:04;;;;;;;7.90;3.30;;;;;;;5.25;46.61;98783.02;78045;1305;3054324;-67
2023/03/31 07:14:31;;;;;;;7.80;3.70;;;;;;;5.32;47.45;98782.15;79344;1301;3013180;-68
2023/03/31 07:16:58;;;;;;;8.80;3.20;;;;;;;5.44;42.40;98787.84;79301;1303;3012987;-67
2023/03/31 07:19:31;;;;;;;8.20;2.90;;;;;;;5.46;38.64;98789.97;77572;1305;3056793;-70
2023/03/31 07:22:00;;;;;;;8.10;3.20;;;;;;;5.42;36.42;98781.48;78197;1299;3054554;-65
2023/03/31 07:24:26;;;;;;;7.20;3.00;;;;;;;5.37;35.46;98782.08;79574;1301;3012885;-68
2023/03/31 07:26:53;;;;;;;11.00;2.90;;;;;;;5.43;35.81;98784.89;79404;1301;3011318;-67
2023/03/31 07:29:20;;;;;;;7.00;3.20;;;;;;;5.57;35.56;98782.13;78275;1301;3026492;-69
2023/03/31 07:31:49;;;;;;;10.00;3.20;;;;;;;5.54;35.98;98785.95;79506;1298;3013672;-67
2023/03/31 07:34:18;;;;;;;9.40;3.60;;;;;;;5.82;36.54;98783.98;78300;1296;3027992;-72
2023/03/31 07:36:46;;;;;;;10.80;3.30;;;;;;;5.74;35.55;98796.02;79510;1295;3013455;-66
2023/03/31 07:39:12;;;;;;;6.20;2.60;;;;;;;5.80;35.14;98787.02;79509;1298;3011626;-71
2023/03/31 07:41:41;;;;;;;13.90;3.80;;;;;;;5.91;35.20;98779.00;78367;1295;3052693;-68
2023/03/31 07:44:09;;;;;;;8.80;3.10;;;;;;;6.12;36.41;98779.50;79480;1298;3013086;-69
2023/03/31 07:46:36;;;;;;;14.90;3.60;;;;;;;6.24;36.24;98779.04;79663;1295;3011531;-68
2023/03/31 07:49:04;;;;;;;12.30;3.50;;;;;;;6.26;36.34;98779.25;78363;1298;3056072;-69
2023/03/31 07:51:31;;;;;;;8.40;3.30;;;;;;;6.37;39.18;98779.70;79608;1295;3014815;-71
2023/03/31 07:53:58;;;;;;;5.70;3.10;;;;;;;6.44;40.01;98764.36;79572;1296;3014002;-65
2023/03/31 07:56:26;;;;;;;6.70;3.30;;;;;;;6.42;38.94;98768.46;78420;1295;3051475;-64
2023/03/31 07:58:54;;;;;;;8.10;3.00;;;;;;;6.48;39.77;98762.27;79634;1298;3013125;-66
2023/03/31 08:01:20;;;;;;;6.70;2.20;;;;;;;6.57;40.29;98773.61;79591;1295;3011782;-66
2023/03/31 08:03:48;;;;;;;4.70;2.10;;;;;;;6.72;40.52;98779.35;78451;1296;3055309;-66
2023/03/31 08:06:19;;;;;;;5.40;2.10;;;;;;;6.56;41.61;98776.80;79658;1295;3020712;-69
2023/03/31 08:08:48;;;;;;;5.40;2.30;;;;;;;6.47;43.19;98769.92;78234;1298;3050536;-63
2023/03/31 08:11:15;;;;;;;3.90;2.30;;;;;;;6.50;43.37;98773.80;79597;1298;3012876;-70
2023/03/31 08:13:43;;;;;;;6.30;2.00;;;;;;;6.58;43.87;98774.22;79708;1298;3011880;-66
2023/03/31 08:16:10;;;;;;;4.70;2.60;;;;;;;6.75;43.67;98774.17;78231;1294;3048271;-67
2023/03/31 08:18:37;;;;;;;5.10;3.00;;;;;;;6.84;43.47;98763.39;79677;1296;3020952;-71
2023/03/31 08:21:05;;;;;;;6.50;3.00;;;;;;;7.00;42.69;98760.20;79517;1298;3011975;-71
2023/03/31 08:23:33;;;;;;;6.30;3.10;;;;;;;7.13;41.99;98762.63;78193;1301;3026401;-64
2023/03/31 08:26:12;;;;;;;6.10;2.70;;;;;;;7.07;41.87;98764.70;79548;1300;3013056;-69
2023/03/31 08:28:40;;;;;;;5.70;2.50;;;;;;;7.10;41.54;98765.21;78243;1298;3068974;-67
2023/03/31 08:31:07;;;;;;;4.00;2.00;;;;;;;7.25;41.66;98763.11;79608;1298;3012884;-65
2023/03/31 08:33:33;;;;;;;7.30;2.70;;;;;;;7.14;41.41;98765.48;79416;1295;3012832;-68
2023/03/31 08:36:07;;;;;;;5.60;2.60;;;;;;;7.14;42.92;98771.59;78222;1298;3026412;-69
2023/03/31 08:38:41;;;;;;;3.80;2.20;;;;;;;7.31;42.31;98775.69;78880;1296;3013847;-70
2023/03/31 08:41:16;;;;;;;4.80;3.00;;;;;;;7.32;42.50;98764.81;79558;1298;3012020;-61
2023/03/31 08:43:45;;;;;;;6.00;3.00;;;;;;;7.37;43.25;98759.85;78169;1298;3053104;-69
2023/03/31 08:46:13;;;;;;;6.10;2.90;;;;;;;7.46;42.54;98781.43;79557;1301;3014132;-66
2023/03/31 08:48:47;;;;;;;3.80;2.20;;;;;;;7.46;41.82;98780.03;79117;1295;3011593;-68
2023/03/31 08:51:20;;;;;;;;;;;;;;;7.39;41.46;98773.50;79650;1296;3013656;-67
2023/03/31 08:53:52;;;;;;;4.00;2.00;;;;;;;6.90;42.74;98770.90;78340;1296;3055791;-66
2023/03/31 08:56:19;;;;;;;4.30;1.90;;;;;;;7.20;42.58;98773.88;79659;1298;3011590;-64
2023/03/31 08:58:49;;;;;;;4.00;2.00;;;;;;;7.28;42.84;98771.16;78396;1301;3052570;-70
2023/03/31 09:01:33;;;;;;;3.30;2.00;;;;;;;7.43;42.94;98780.39;80895;1295;3019075;-67
2023/03/31 09:04:15;;;;;;;6.00;2.80;;;;;;;7.45;42.73;98783.08;78739;1301;3053687;-68
2023/03/31 09:06:55;;;;;;;5.50;2.80;;;;;;;7.20;42.81;98768.66;78453;1296;3071274;-67
2023/03/31 09:09:42;;;;;;;4.50;2.40;;;;;;;7.32;42.87;98771.96;78320;1295;3051797;-68
2023/03/31 09:12:15;;;;;;;3.60;2.30;;;;;;;7.33;42.69;98770.00;78276;1295;3056917;-70
2023/03/31 09:15:00;;;;;;;6.80;2.90;;;;;;;7.32;43.30;98762.20;79647;1295;3011792;-70
2023/03/31 09:17:39;;;;;;;3.80;2.40;;;;;;;7.53;43.20;98761.15;78279;1300;3053729;-69
2023/03/31 09:20:13;;;;;;;6.50;3.00;;;;;;;7.42;42.92;98762.30;78150;1296;3049054;-67
2023/03/31 09:22:46;;;;;;;6.50;3.40;;;;;;;7.51;42.83;98767.35;79221;1300;3011953;-69
2023/03/31 09:25:33;;;;;;;5.60;2.90;;;;;;;7.60;42.64;98776.78;79691;1296;3012897;-70
2023/03/31 09:28:02;;;;;;;6.10;3.00;;;;;;;7.52;42.67;98775.53;78584;1298;3054510;-69
2023/03/31 09:30:30;;;;;;;6.70;2.70;;;;;;;7.51;43.06;98782.90;79641;1301;3013227;-69
2023/03/31 09:33:18;;;;;;;4.50;2.40;;;;;;;7.49;43.56;98772.91;78386;1300;3055906;-71
2023/03/31 09:35:46;;;;;;;6.20;2.90;;;;;;;7.58;42.97;98771.13;78341;1300;3049365;-66
2023/03/31 09:38:17;;;;;;;6.60;2.90;;;;;;;7.31;42.63;98778.11;79291;1296;3011555;-64
2023/03/31 09:40:47;;;;;;;4.60;2.70;;;;;;;7.17;42.54;98760.66;78069;1300;3050235;-68
2023/03/31 09:43:25;;;;;;;6.40;2.90;;;;;;;7.33;42.19;98765.30;79405;1295;3011636;-71
2023/03/31 09:45:53;;;;;;;6.80;2.70;;;;;;;7.42;42.46;98759.52;78170;1299;3068884;-70
2023/03/31 09:48:25;;;;;;;6.80;2.60;;;;;;;7.21;44.17;98752.38;79337;1296;3013627;-64
2023/03/31 09:50:58;;;;;;;4.00;2.20;;;;;;;7.25;44.61;98767.98;78137;1296;3049083;-66
2023/03/31 09:53:46;;;;;;;6.30;2.90;;;;;;;7.13;44.37;98775.33;78856;1296;3011833;-65
2023/03/31 09:56:54;;;;;;;8.80;2.20;;;;;;;7.21;44.87;98766.86;78298;1298;3053815;-63
2023/03/31 09:59:32;;;;;;;3.80;2.20;;;;;;;7.15;45.84;98763.36;77766;1307;3050075;-72
2023/03/31 10:02:01;;;;;;;3.30;2.10;;;;;;;7.37;45.39;98759.45;79473;1298;3011860;-67
2023/03/31 10:04:32;;;;;;;4.60;2.40;;;;;;;7.47;45.10;98751.58;78089;1296;3053858;-67
2023/03/31 10:07:03;;;;;;;3.30;2.10;;;;;;;7.55;44.62;98769.03;79368;1298;3013218;-69
2023/03/31 10:09:32;;;;;;;4.70;2.70;;;;;;;7.59;43.97;98756.45;78143;1301;3050416;-66
2023/03/31 10:12:05;;;;;;;4.40;2.60;;;;;;;7.61;45.18;98752.13;79606;1295;3013937;-63
2023/03/31 10:14:41;;;;;;;6.50;2.00;;;;;;;7.66;44.75;98755.53;78299;1298;3053008;-66
2023/03/31 10:17:13;;;;;;;2.80;1.90;;;;;;;7.76;44.03;98747.77;78199;1298;3049337;-67
2023/03/31 10:19:45;;;;;;;6.40;3.20;;;;;;;7.81;43.57;98747.98;79583;1296;3011727;-65
2023/03/31 10:22:21;;;;;;;5.40;3.20;;;;;;;7.92;43.76;98736.52;78318;1304;3052155;-72
2023/03/31 10:24:50;;;;;;;5.90;3.00;;;;;;;7.96;44.12;98736.09;79007;1296;3011666;-67
2023/03/31 10:27:21;;;;;;;10.70;3.40;;;;;;;8.00;44.79;98738.80;79525;1296;3011639;-71
2023/03/31 10:29:53;;;;;;;6.20;3.30;;;;;;;8.16;45.07;98725.95;78366;1296;3026918;-70
2023/03/31 10:32:27;;;;;;;8.30;3.90;;;;;;;8.24;44.97;98728.77;79467;1296;3011672;-69
2023/03/31 10:34:56;;;;;;;11.60;4.70;;;;;;;8.06;45.20;98729.56;78252;1301;3048925;-67
2023/03/31 10:37:25;;;;;;;9.20;3.80;;;;;;;8.02;45.62;98741.16;79445;1301;3013256;-74
2023/03/31 10:40:05;;;;;;;8.70;3.70;;;;;;;8.24;44.55;98725.11;79112;1295;3011827;-66
2023/03/31 10:42:33;;;;;;;6.50;3.30;;;;;;;8.27;43.79;98739.08;78272;1299;3053790;-67
2023/03/31 10:45:23;;;;;;;5.50;2.50;;;;;;;8.38;43.36;98728.96;79574;1296;3013118;-73
2023/03/31 10:47:55;;;;;;;4.50;2.60;;;;;;;8.37;42.84;98738.11;78240;1299;3052531;-65
2023/03/31 10:50:30;;;;;;;6.70;3.10;;;;;;;8.59;42.63;98726.59;79465;1295;3011601;-75
2023/03/31 10:53:01;;;;;;;5.50;3.00;;;;;;;8.64;43.13;98719.80;78291;1295;3049195;-70
2023/03/31 10:55:51;;;;;;;5.50;2.90;;;;;;;8.45;43.21;98719.80;79591;1295;3011555;-74
2023/03/31 10:58:48;;;;;;;7.20;3.00;;;;;;;8.46;43.13;98711.70;78267;1300;3050025;-66
2023/03/31 11:01:49;;;;;;;6.10;3.30;;;;;;;8.60;43.20;98709.27;78139;1299;3053728;-73
2023/03/31 11:04:33;;;;;;;8.70;3.50;;;;;;;8.64;43.11;98702.56;78001;1301;3054693;-66
2023/03/31 11:07:15;;;;;;;6.10;2.60;;;;;;;8.60;43.05;98713.09;78221;1298;3069620;-67
2023/03/31 11:10:07;;;;;;;10.10;3.50;;;;;;;8.53;43.21;98708.15;78234;1300;3052125;-71
2023/03/31 11:12:43;;;;;;;7.00;3.80;;;;;;;8.65;42.89;98697.23;78360;1295;3057765;-67
2023/03/31 11:15:32;;;;;;;6.40;3.20;;;;;;;8.75;42.75;98706.37;78247;1301;3049525;-67
2023/03/31 11:18:07;;;;;;;7.50;3.10;;;;;;;8.74;42.12;98713.94;78330;1298;3054274;-65
2023/03/31 11:21:32;;;;;;;5.80;2.80;;;;;;;8.63;41.92;98713.98;78941;1296;3011481;-70
2023/03/31 11:24:25;;;;;;;11.10;3.50;;;;;;;8.47;41.78;98710.40;78010;1298;3049641;-69
2023/03/31 11:27:06;;;;;;;6.20;3.00;;;;;;;8.49;41.75;98708.36;78255;1298;3053209;-66
2023/03/31 11:29:45;;;;;;;9.80;4.30;;;;;;;8.47;41.99;98700.28;78441;1297;3052646;-70
2023/03/31 11:32:32;;;;;;;9.10;3.80;;;;;;;8.47;41.94;98694.20;78323;1298;3069126;-67
2023/03/31 11:35:06;;;;;;;11.70;4.10;;;;;;;8.66;41.76;98687.26;78271;1309;3052525;-73
2023/03/31 11:38:05;;;;;;;10.60;4.80;;;;;;;8.81;41.15;98689.20;79253;1296;3013256;-63
2023/03/31 11:40:51;;;;;;;9.00;4.00;;;;;;;8.82;40.14;98701.55;78172;1298;3048943;-64
2023/03/31 11:43:43;;;;;;;8.80;3.20;;;;;;;8.91;39.95;98690.13;78162;1298;3054347;-67
2023/03/31 11:46:20;;;;;;;7.20;3.30;;;;;;;9.00;39.47;98694.95;78071;1297;3051705;-67
2023/03/31 11:48:56;;;;;;;11.30;3.50;;;;;;;8.92;39.51;98698.60;78304;1299;3053330;-70
2023/03/31 11:51:31;;;;;;;10.50;3.90;;;;;;;8.69;38.99;98700.98;80655;1298;3052852;-71
2023/03/31 11:53:57;;;;;;;7.40;3.70;;;;;;;8.77;39.42;98679.02;81860;1301;3011440;-69
2023/03/31 11:56:34;;;;;;;9.80;4.00;;;;;;;8.88;39.55;98678.65;78583;1296;3052397;-70
2023/03/31 11:59:03;;;;;;;8.50;4.10;;;;;;;8.96;39.65;98679.70;78122;1296;3054614;-68
2023/03/31 12:01:35;;;;;;;12.90;3.80;;;;;;;9.07;39.80;98678.23;79421;1295;3013456;-70
2023/03/31 12:04:18;;;;;;;9.60;4.10;;;;;;;9.23;39.63;98675.95;78248;1301;3049801;-67
2023/03/31 12:06:46;;;;;;;5.60;2.90;;;;;;;9.37;39.50;98676.23;78330;1298;3052437;-66
2023/03/31 12:09:22;;;;;;;6.20;2.80;;;;;;;9.43;38.64;98669.36;79469;1298;3013795;-70
2023/03/31 12:12:02;;;;;;;8.20;3.30;;;;;;;9.48;38.35;98672.86;78394;1296;3052764;-65
2023/03/31 12:14:40;;;;;;;6.40;2.80;;;;;;;9.42;37.66;98669.80;78390;1296;3056404;-66
2023/03/31 12:17:13;;;;;;;6.50;3.60;;;;;;;9.38;37.52;98665.90;78318;1296;3049803;-68
2023/03/31 12:19:50;;;;;;;4.90;2.80;;;;;;;9.64;37.46;98669.98;79697;1296;3011992;-68
2023/03/31 12:22:23;;;;;;;6.40;3.20;;;;;;;9.69;37.43;98662.32;78353;1298;3052878;-68
2023/03/31 12:24:51;;;;;;;6.60;3.20;;;;;;;9.69;36.66;98659.03;79517;1295;3013262;-68
2023/03/31 12:27:36;;;;;;;10.80;4.30;;;;;;;9.73;36.25;98646.50;78400;1298;3051906;-70
2023/03/31 12:30:13;;;;;;;3.60;2.20;;;;;;;9.59;36.65;98662.86;78354;1298;3070255;-66
2023/03/31 12:32:48;;;;;;;8.00;3.60;;;;;;;9.69;36.82;98651.13;78362;1295;3051075;-69
2023/03/31 12:35:42;;;;;;;10.70;2.90;;;;;;;9.68;36.93;98646.48;78918;1296;3011457;-67
2023/03/31 12:38:34;;;;;;;3.80;2.30;;;;;;;9.60;36.86;98634.09;78360;1295;3057436;-69
2023/03/31 12:41:13;;;;;;;4.20;2.10;;;;;;;9.61;36.91;98635.28;78396;1295;3048960;-69
2023/03/31 12:43:53;;;;;;;6.00;1.80;;;;;;;9.61;37.00;98632.82;78325;1296;3052824;-66
2023/03/31 12:46:43;;;;;;;4.00;2.20;;;;;;;9.67;36.28;98632.57;78322;1298;3051412;-68
2023/03/31 12:49:15;;;;;;;3.30;1.60;;;;;;;9.62;35.81;98622.77;78198;1301;3053149;-69
2023/03/31 12:51:57;;;;;;;3.50;1.90;;;;;;;9.65;35.17;98628.87;79679;1298;3012284;-68
2023/03/31 12:54:55;;;;;;;5.30;1.90;;;;;;;9.48;34.73;98622.57;78446;1298;3070248;-70
2023/03/31 12:57:24;;;;;;;6.40;2.00;;;;;;;9.47;34.09;98619.11;78230;1298;3052953;-69
2023/03/31 13:00:11;;;;;;;5.20;2.50;;;;;;;9.60;33.61;98622.23;79708;1296;3013307;-69
2023/03/31 13:02:40;;;;;;;5.00;1.70;;;;;;;9.68;31.96;98616.03;78376;1298;3050056;-69
2023/03/31 13:05:36;;;;;;;7.10;3.40;;;;;;;9.75;31.71;98616.09;79432;1296;3012879;-67
2023/03/31 13:08:06;;;;;;;6.70;2.60;;;;;;;9.96;31.51;98614.14;78432;1298;3052846;-71
2023/03/31 13:10:50;;;;;;;3.70;1.90;;;;;;;9.97;31.37;98608.45;79530;1298;3013005;-69
2023/03/31 13:13:18;;;;;;;6.80;3.00;;;;;;;10.05;31.40;98610.30;78372;1295;3068623;-71
2023/03/31 13:15:57;;;;;;;6.80;2.80;;;;;;;9.82;31.23;98611.61;79574;1295;3021295;-70
2023/03/31 13:18:32;;;;;;;5.00;2.60;;;;;;;9.79;31.10;98596.61;78160;1304;3050528;-69
2023/03/31 13:20:59;;;;;;;4.40;1.80;;;;;;;9.84;30.93;98597.14;79478;1301;3011818;-67
2023/03/31 13:23:33;;;;;;;4.30;2.30;;;;;;;9.94;31.04;98592.86;78157;1299;3050948;-71
2023/03/31 13:26:00;;;;;;;3.50;1.90;;;;;;;9.92;30.74;98592.30;79490;1301;3013230;-70
2023/03/31 13:28:33;;;;;;;4.90;2.00;;;;;;;10.03;30.62;98592.23;78219;1301;3026356;-70
2023/03/31 13:31:01;;;;;;;;;;;;;;;10.14;30.71;98580.41;79479;1301;3011210;-70
2023/03/31 13:33:56;;;;;;;4.20;1.50;;;;;;;10.12;30.29;98587.41;78402;1297;3051181;-70
2023/03/31 13:36:25;;;;;;;3.40;1.70;;;;;;;10.13;30.88;98584.36;78174;1296;3056225;-68
2023/03/31 13:39:20;;;;;;;3.40;1.80;;;;;;;10.07;31.09;98573.80;79601;1298;3013535;-66
2023/03/31 13:42:07;;;;;;;7.70;2.60;;;;;;;10.06;31.95;98571.02;78239;1298;3050635;-72
2023/03/31 13:44:54;;;;;;;4.40;2.00;;;;;;;10.13;32.38;98572.64;78383;1300;3053433;-68
2023/03/31 13:48:01;;;;;;;6.60;3.30;;;;;;;10.29;33.07;98565.35;78548;1301;3052227;-72
2023/03/31 13:50:57;;;;;;;7.90;3.70;;;;;;;10.34;33.82;98562.86;78120;1295;3071531;-70
2023/03/31 13:53:53;;;;;;;4.70;2.30;;;;;;;10.17;35.29;98562.20;78335;1300;3052050;-67
2023/03/31 13:56:32;;;;;;;6.00;2.90;;;;;;;10.14;35.77;98559.41;78465;1301;3056410;-68
2023/03/31 13:59:33;;;;;;;5.90;2.50;;;;;;;10.12;36.14;98562.77;78327;1296;3050192;-66
2023/03/31 14:02:29;;;;;;;5.40;2.60;;;;;;;10.16;36.51;98557.20;78492;1301;3052667;-69
2023/03/31 14:05:16;;;;;;;3.60;2.10;;;;;;;10.22;37.02;98565.85;78536;1300;3051440;-68
2023/03/31 14:07:48;;;;;;;7.30;2.40;;;;;;;10.12;37.64;98558.90;78661;1298;3054475;-70
2023/03/31 14:10:31;;;;;;;;;;;;;;;10.10;37.90;98570.23;79734;1301;3011594;-67
2023/03/31 14:13:13;;;;;;;5.20;2.70;;;;;;;10.21;38.30;98556.13;78593;1298;3068816;-67
2023/03/31 14:15:52;;;;;;;5.70;3.20;;;;;;;10.21;38.79;98555.79;78409;1295;3052831;-73
2023/03/31 14:18:32;;;;;;;7.80;3.10;;;;;;;10.26;39.13;98558.02;78403;1296;3057041;-67
2023/03/31 14:21:10;;;;;;;10.20;3.50;;;;;;;10.14;38.92;98560.33;78460;1296;3049823;-70
2023/03/31 14:23:47;;;;;;;7.60;3.00;;;;;;;9.98;39.06;98565.14;78503;1295;3052696;-66
2023/03/31 14:26:50;;;;;;;5.10;3.10;;;;;;;9.79;38.90;98560.02;78659;1298;3049266;-69
2023/03/31 14:29:34;;;;;;;6.40;2.70;;;;;;;9.79;38.96;98553.41;78776;1298;3053410;-69
2023/03/31 14:32:06;;;;;;;7.70;2.80;;;;;;;9.76;39.31;98553.40;78542;1300;3052049;-70
2023/03/31 14:35:12;;;;;;;4.80;2.70;;;;;;;9.83;39.10;98549.61;79992;1298;3011684;-69
2023/03/31 14:37:44;;;;;;;8.40;2.50;;;;;;;9.97;39.07;98551.94;78523;1295;3053436;-69
2023/03/31 14:40:13;;;;;;;4.90;2.30;;;;;;;9.88;39.42;98550.30;79795;1296;3013299;-71
2023/03/31 14:42:48;;;;;;;6.00;3.10;;;;;;;9.92;39.52;98538.44;79228;1294;3011541;-69
2023/03/31 14:45:30;;;;;;;10.60;3.80;;;;;;;10.01;39.59;98536.09;78588;1298;3053638;-70
2023/03/31 14:48:04;;;;;;;12.50;4.70;;;;;;;10.03;39.98;98541.02;78715;1298;3051132;-73
2023/03/31 14:50:34;;;;;;;9.30;4.50;;;;;;;9.94;39.83;98540.43;80197;1296;3011777;-69
2023/03/31 14:53:03;;;;;;;10.80;4.30;;;;;;;9.89;39.88;98537.23;78598;1296;3055330;-70
2023/03/31 14:55:30;;;;;;;4.90;3.00;;;;;;;9.89;40.47;98533.94;79655;1296;3012873;-70
2023/03/31 14:57:58;;;;;;;10.10;4.00;;;;;;;9.92;40.41;98533.02;79576;1301;3011619;-71
2023/03/31 15:00:29;;;;;;;6.20;3.60;;;;;;;10.00;40.60;98525.47;78380;1295;3049507;-69
2023/03/31 15:03:16;;;;;;;11.30;3.60;;;;;;;9.89;40.97;98527.67;78196;1296;3053206;-71
2023/03/31 15:05:44;;;;;;;8.10;3.70;;;;;;;9.75;41.46;98529.86;79521;1298;3013028;-74
2023/03/31 15:08:13;;;;;;;7.10;3.70;;;;;;;9.64;41.68;98519.13;79694;1298;3011667;-72
2023/03/31 15:10:52;;;;;;;7.70;3.70;;;;;;;9.77;41.63;98519.25;78660;1293;3069648;-70
2023/03/31 15:13:44;;;;;;;9.80;3.60;;;;;;;9.65;41.67;98522.36;78202;1301;3050213;-73
2023/03/31 15:16:43;;;;;;;12.00;3.90;;;;;;;9.63;41.90;98518.86;78413;1296;3056150;-67
2023/03/31 15:19:22;;;;;;;10.50;4.00;;;;;;;9.72;41.96;98514.89;78430;1298;3050947;-70
2023/03/31 15:22:00;;;;;;;15.30;3.80;;;;;;;9.66;42.25;98512.14;78507;1297;3052860;-72
2023/03/31 15:24:28;;;;;;;7.70;3.60;;;;;;;9.67;42.26;98518.53;78484;1296;3050164;-71
2023/03/31 15:27:00;;;;;;;7.50;3.50;;;;;;;9.72;42.26;98512.59;79734;1299;3019112;-71
2023/03/31 15:29:36;;;;;;;7.80;3.80;;;;;;;9.60;42.62;98520.46;78511;1293;3069404;-69
2023/03/31 15:32:07;;;;;;;6.60;3.40;;;;;;;9.65;42.73;98516.99;78423;1296;3050617;-73
2023/03/31 15:34:34;;;;;;;6.10;3.50;;;;;;;9.76;42.59;98514.95;79725;1298;3013706;-73
2023/03/31 15:37:06;;;;;;;9.80;3.50;;;;;;;9.80;42.63;98512.40;78318;1301;3048622;-72
2023/03/31 15:39:32;;;;;;;6.40;3.10;;;;;;;9.72;42.70;98513.31;79781;1293;3012942;-71
2023/03/31 15:42:02;;;;;;;6.30;3.40;;;;;;;9.66;42.98;98514.95;79764;1296;3011891;-70
2023/03/31 15:44:54;;;;;;;7.60;3.20;;;;;;;9.67;43.24;98514.38;78674;1295;3054900;-70
2023/03/31 15:47:28;;;;;;;5.40;2.80;;;;;;;9.58;43.62;98518.89;78368;1293;3070767;-70
2023/03/31 15:50:03;;;;;;;9.30;3.60;;;;;;;9.53;43.73;98519.41;79979;1293;3011847;-69
2023/03/31 15:52:34;;;;;;;13.10;4.10;;;;;;;9.62;43.53;98517.55;78591;1298;3057111;-68
2023/03/31 15:55:25;;;;;;;10.20;3.60;;;;;;;9.69;43.66;98517.71;79761;1296;3011839;-68
2023/03/31 15:57:54;;;;;;;7.80;3.40;;;;;;;9.68;43.73;98516.22;78374;1298;3053740;-66
2023/03/31 16:00:30;;;;;;;9.60;4.40;;;;;;;9.69;43.86;98517.16;79735;1298;3015854;-71
2023/03/31 16:02:59;;;;;;;8.00;3.70;;;;;;;9.69;44.21;98520.38;78552;1295;3051770;-72
2023/03/31 16:05:55;;;;;;;8.50;4.10;;;;;;;9.70;44.01;98520.58;79878;1296;3012732;-68
2023/03/31 16:08:26;;;;;;;7.10;3.70;;;;;;;9.68;44.29;98523.05;78525;1292;3056069;-71
2023/03/31 16:10:55;;;;;;;8.90;3.90;;;;;;;9.67;44.36;98525.25;79786;1293;3011627;-67
2023/03/31 16:13:25;;;;;;;8.20;3.50;;;;;;;9.61;44.93;98527.58;78504;1293;3053039;-66
2023/03/31 16:15:52;;;;;;;9.80;3.70;;;;;;;9.56;45.35;98532.64;79737;1296;3013064;-71
2023/03/31 16:18:25;;;;;;;6.50;3.10;;;;;;;9.55;45.54;98535.32;79754;1296;3013137;-70
2023/03/31 16:20:57;;;;;;;9.10;3.70;;;;;;;9.52;45.65;98534.47;78472;1293;3070883;-66
2023/03/31 16:23:26;;;;;;;6.70;3.40;;;;;;;9.42;45.90;98537.30;79830;1293;3013204;-66
2023/03/31 16:25:54;;;;;;;8.80;3.50;;;;;;;9.36;46.21;98538.05;78574;1296;3025029;-71
2023/03/31 16:28:25;;;;;;;7.90;3.20;;;;;;;9.25;46.22;98536.04;79800;1292;3013578;-69
2023/03/31 16:30:53;;;;;;;12.80;4.00;;;;;;;9.31;46.00;98537.35;78589;1307;3049952;-72
2023/03/31 16:33:24;;;;;;;9.40;4.40;;;;;;;9.18;46.15;98538.10;79742;1293;3013486;-75
2023/03/31 16:35:55;;;;;;;12.40;4.30;;;;;;;9.05;46.39;98533.08;78397;1300;3052867;-70
2023/03/31 16:38:26;;;;;;;12.50;5.30;;;;;;;8.94;46.30;98536.27;79861;1293;3011767;-69
2023/03/31 16:40:55;;;;;;;16.20;4.90;;;;;;;8.98;45.47;98538.59;78635;1298;3052660;-68
2023/03/31 16:43:29;;;;;;;12.90;4.50;;;;;;;8.83;45.14;98543.98;79898;1293;3013136;-71
2023/03/31 16:45:59;;;;;;;13.70;4.80;;;;;;;8.78;45.09;98547.27;78420;1293;3054562;-68
2023/03/31 16:48:27;;;;;;;13.70;4.80;;;;;;;8.75;44.85;98555.51;79895;1296;3013193;-70
2023/03/31 16:51:02;;;;;;;11.50;5.40;;;;;;;8.64;45.03;98550.33;78512;1298;3053270;-68
2023/03/31 16:53:32;;;;;;;18.30;4.30;;;;;;;8.67;44.75;98549.05;79848;1295;3013265;-67
2023/03/31 16:56:01;;;;;;;13.50;4.60;;;;;;;8.64;44.99;98551.73;78471;1293;3051425;-68
2023/03/31 16:58:27;;;;;;;12.10;4.80;;;;;;;8.54;45.04;98557.61;79926;1293;3018240;-73
2023/03/31 17:00:55;;;;;;;15.20;4.30;;;;;;;8.47;45.30;98555.83;79655;1293;3012888;-70
2023/03/31 17:03:28;;;;;;;10.00;4.00;;;;;;;8.39;45.65;98561.36;78414;1299;3049340;-68
2023/03/31 17:05:56;;;;;;;10.70;4.20;;;;;;;8.31;46.07;98566.57;79740;1298;3014904;-72
2023/03/31 17:08:24;;;;;;;11.90;3.70;;;;;;;8.25;46.17;98566.31;79676;1297;3013285;-69
2023/03/31 17:10:55;;;;;;;8.40;3.30;;;;;;;8.17;46.17;98579.17;78511;1292;3051096;-69
2023/03/31 17:13:22;;;;;;;15.30;3.90;;;;;;;8.13;46.34;98574.94;79775;1298;3011748;-67
2023/03/31 17:15:52;;;;;;;11.40;3.90;;;;;;;8.05;46.38;98574.95;79237;1292;3012945;-70
2023/03/31 17:18:19;;;;;;;14.30;3.80;;;;;;;7.95;46.82;98580.44;79631;1292;3015479;-70
2023/03/31 17:20:46;;;;;;;14.10;3.50;;;;;;;7.89;46.90;98576.08;79809;1296;3011883;-70
2023/03/31 17:23:14;;;;;;;13.90;3.60;;;;;;;7.97;46.85;98574.89;78485;1298;3052861;-69
2023/03/31 17:25:48;;;;;;;10.20;3.30;;;;;;;7.90;47.30;98575.70;79814;1298;3013965;-71
2023/03/31 17:28:17;;;;;;;13.30;3.50;;;;;;;7.90;47.61;98573.42;78485;1297;3056090;-74
2023/03/31 17:30:47;;;;;;;16.60;3.90;;;;;;;7.81;47.73;98577.98;79730;1295;3013432;-70
2023/03/31 17:33:15;;;;;;;23.70;3.60;;;;;;;7.80;48.04;98581.92;78503;1293;3053395;-71
2023/03/31 17:35:42;;;;;;;10.40;3.70;;;;;;;7.80;48.16;98584.30;79676;1299;3013748;-72
2023/03/31 17:38:11;;;;;;;12.90;3.30;;;;;;;7.72;48.58;98589.73;79649;1298;3012032;-66
2023/03/31 17:40:39;;;;;;;12.90;4.00;;;;;;;7.77;48.47;98589.02;78733;1297;3069235;-67
2023/03/31 17:43:07;;;;;;;18.10;4.30;;;;;;;7.71;48.78;98594.33;79735;1298;3011760;-69
2023/03/31 17:45:34;;;;;;;9.90;4.00;;;;;;;7.70;49.29;98596.48;79828;1295;3012013;-65
2023/03/31 17:48:09;;;;;;;17.20;4.50;;;;;;;7.71;49.34;98598.48;78490;1295;3052624;-70
2023/03/31 17:50:39;;;;;;;11.00;4.20;;;;;;;7.69;49.78;98601.08;79776;1296;3012085;-65
2023/03/31 17:53:07;;;;;;;11.60;3.30;;;;;;;7.62;50.23;98599.95;78673;1298;3054827;-70
2023/03/31 17:55:36;;;;;;;8.10;3.10;;;;;;;7.63;50.53;98598.33;79820;1297;3012953;-69
2023/03/31 17:58:07;;;;;;;14.60;3.90;;;;;;;7.61;51.22;98602.98;78947;1296;3012869;-68
2023/03/31 18:00:34;;;;;;;10.80;3.30;;;;;;;7.58;51.28;98603.81;79766;1295;3013016;-69
2023/03/31 18:03:01;;;;;;;10.40;3.10;;;;;;;7.61;51.63;98598.59;79842;1292;3012770;-66
2023/03/31 18:05:30;;;;;;;14.00;3.40;;;;;;;7.60;51.64;98600.25;78365;1298;3051662;-69
2023/03/31 18:07:57;;;;;;;8.20;3.20;;;;;;;7.53;52.11;98604.67;79612;1296;3014977;-68
2023/03/31 18:10:24;;;;;;;9.60;3.20;;;;;;;7.57;52.30;98603.71;79834;1298;3011750;-68
2023/03/31 18:12:58;;;;;;;16.00;3.20;;;;;;;7.47;52.84;98602.79;78515;1298;3068817;-66
2023/03/31 18:15:25;;;;;;;7.10;2.60;;;;;;;7.42;53.34;98605.52;79738;1293;3013292;-71
2023/03/31 18:17:52;;;;;;;8.80;3.40;;;;;;;7.43;53.68;98604.62;79644;1294;3013893;-68
2023/03/31 18:20:23;;;;;;;9.20;3.70;;;;;;;7.43;53.98;98607.22;78453;1298;3054743;-65
2023/03/31 18:22:52;;;;;;;7.80;3.90;;;;;;;7.42;54.18;98608.65;79667;1298;3011705;-66
2023/03/31 18:25:21;;;;;;;16.10;3.60;;;;;;;7.34;54.67;98614.21;79330;1306;3013834;-66
2023/03/31 18:27:50;;;;;;;7.80;3.30;;;;;;;7.38;54.88;98614.29;79738;1297;3013094;-70
2023/03/31 18:30:17;;;;;;;9.70;3.40;;;;;;;7.30;55.43;98613.05;79642;1294;3011591;-68
2023/03/31 18:32:45;;;;;;;10.80;3.60;;;;;;;7.30;55.63;98614.25;78497;1293;3056886;-68
2023/03/31 18:35:11;;;;;;;13.60;3.60;;;;;;;7.36;55.65;98609.73;79654;1293;3013556;-68
2023/03/31 18:37:40;;;;;;;11.40;3.10;;;;;;;7.22;56.08;98615.27;79850;1298;3011553;-76
2023/03/31 18:40:08;;;;;;;8.60;3.30;;;;;;;7.19;56.32;98622.93;78518;1298;3054143;-67
2023/03/31 18:42:36;;;;;;;23.10;4.10;;;;;;;7.03;56.88;98620.60;79861;1298;3013015;-71
2023/03/31 18:45:07;;;;;;;16.50;4.30;;;;;;;7.08;57.03;98616.11;79215;1296;3011505;-73
2023/03/31 18:47:35;;;;;;;22.00;3.60;;;;;;;7.10;57.19;98605.52;79828;1296;3011483;-69
2023/03/31 18:50:01;;;;;;;17.20;3.40;;;;;;;7.18;56.88;98609.91;79865;1296;3011781;-70
2023/03/31 18:52:30;;;;;;;11.60;3.60;;;;;;;7.10;57.23;98611.46;78603;1298;3054216;-75
2023/03/31 18:54:57;;;;;;;20.80;4.10;;;;;;;7.03;57.54;98608.58;79813;1298;3013275;-70
2023/03/31 18:57:24;;;;;;;13.10;3.80;;;;;;;7.01;57.79;98616.19;79797;1298;3013666;-67
2023/03/31 18:59:53;;;;;;;16.80;3.90;;;;;;;7.06;58.01;98614.98;78378;1296;3069223;-70
2023/03/31 19:02:20;;;;;;;8.90;4.00;;;;;;;7.05;58.09;98615.57;79956;1298;3014204;-68